Time;durP1;ratioP1;P1;durP2;ratioP2;P2;SDS_P1;SDS_P2;PMS_P1;PMS_P2;Temp;Humidity;BMP_temperature;BMP_pressure;BME280_temperature;BME280_humidity;BME280_pressure;Samples;Min_cycle;Max_cycle;Signal;HPM_P1;HPM_P2
2022/05/22 00:02:18;;;;;;;3.50;2.03;;;12.60;99.90;;;;;;4944363;29;20020;-91
2022/05/22 00:04:43;;;;;;;3.97;2.05;;;12.60;99.90;;;;;;4936200;28;20038;-90
2022/05/22 00:07:09;;;;;;;4.03;1.98;;;12.60;99.90;;;;;;4944759;29;20027;-90
2022/05/22 00:09:35;;;;;;;3.03;2.10;;;12.60;99.90;;;;;;4952395;29;20447;-91
2022/05/22 00:12:02;;;;;;;5.43;2.75;;;12.60;99.90;;;;;;4951978;28;20027;-91
2022/05/22 00:14:28;;;;;;;3.55;1.95;;;12.60;99.90;;;;;;4953599;28;20023;-90
2022/05/22 00:16:54;;;;;;;7.85;2.30;;;12.60;99.90;;;;;;4949833;28;20023;-91
2022/05/22 00:19:25;;;;;;;4.68;2.20;;;12.60;99.90;;;;;;4933128;28;20028;-90
2022/05/22 00:21:51;;;;;;;4.57;2.15;;;12.60;99.90;;;;;;4954192;29;20015;-90
2022/05/22 00:24:20;;;;;;;2.75;2.38;;;12.50;99.90;;;;;;4951251;28;20028;-91
2022/05/22 00:26:46;;;;;;;4.13;2.45;;;12.50;99.90;;;;;;4950993;28;20446;-91
2022/05/22 00:29:13;;;;;;;2.53;2.25;;;12.50;99.90;;;;;;4946222;28;20110;-91
2022/05/22 00:31:39;;;;;;;2.42;2.00;;;12.40;99.90;;;;;;4946693;28;20504;-91
2022/05/22 00:34:05;;;;;;;1.65;1.55;;;12.40;99.90;;;;;;4950406;29;20027;-91
2022/05/22 00:36:30;;;;;;;4.43;2.20;;;12.30;99.90;;;;;;4937799;28;20027;-90
2022/05/22 00:38:56;;;;;;;4.78;2.50;;;12.20;99.90;;;;;;4952857;28;20038;-91
2022/05/22 00:41:22;;;;;;;8.10;2.22;;;12.10;99.90;;;;;;4949581;28;20379;-91
2022/05/22 00:43:52;;;;;;;3.10;2.28;;;11.90;99.90;;;;;;4953499;28;20051;-90
2022/05/22 00:46:21;;;;;;;7.63;2.28;;;11.80;99.90;;;;;;4945414;28;20881;-91
2022/05/22 00:48:49;;;;;;;2.47;2.10;;;11.70;99.90;;;;;;4947885;29;20022;-90
2022/05/22 00:51:49;;;;;;;3.15;2.78;;;11.60;99.90;;;;;;4942007;29;20024;-91
2022/05/22 00:54:20;;;;;;;6.93;2.10;;;11.50;99.90;;;;;;4935942;29;20487;-91
2022/05/22 00:57:01;;;;;;;3.35;2.33;;;11.50;99.90;;;;;;4956957;28;20166;-90
2022/05/22 00:59:33;;;;;;;3.65;2.72;;;11.40;99.90;;;;;;4943041;28;20099;-91
2022/05/22 01:01:59;;;;;;;;;;;11.40;99.90;;;;;;4945419;28;20039;-90
2022/05/22 01:04:28;;;;;;;3.00;2.65;;;11.40;99.90;;;;;;4945930;28;20409;-91
2022/05/22 01:06:54;;;;;;;3.67;2.63;;;11.30;99.90;;;;;;4951851;28;20023;-91
2022/05/22 01:09:20;;;;;;;4.22;2.72;;;11.30;99.90;;;;;;4941935;29;20020;-90
2022/05/22 01:11:48;;;;;;;2.70;2.20;;;11.30;99.90;;;;;;4941387;28;20492;-91
2022/05/22 01:14:18;;;;;;;4.07;2.60;;;11.20;99.90;;;;;;4939915;29;20721;-90
2022/05/22 01:16:45;;;;;;;5.25;3.13;;;11.20;99.90;;;;;;4955122;28;20019;-90
2022/05/22 01:19:16;;;;;;;5.40;3.17;;;11.30;99.90;;;;;;4949195;29;20020;-91
2022/05/22 01:21:54;;;;;;;4.30;2.78;;;11.30;99.90;;;;;;4950977;29;20034;-91
2022/05/22 01:24:21;;;;;;;3.55;2.80;;;11.30;99.90;;;;;;4937444;28;20063;-91
2022/05/22 01:26:49;;;;;;;3.80;3.20;;;11.30;99.90;;;;;;4943447;29;20114;-90
2022/05/22 01:29:15;;;;;;;3.58;2.45;;;11.30;99.90;;;;;;4952087;28;20745;-90
2022/05/22 01:31:40;;;;;;;4.35;2.60;;;11.40;99.90;;;;;;4941674;28;20024;-88
2022/05/22 01:34:06;;;;;;;3.05;2.38;;;11.30;99.90;;;;;;4952348;29;20031;-90
2022/05/22 01:36:32;;;;;;;3.20;2.58;;;11.30;99.90;;;;;;4974246;28;20034;-90
2022/05/22 01:38:58;;;;;;;6.07;2.42;;;11.30;99.90;;;;;;4944993;29;20075;-90
2022/05/22 01:41:23;;;;;;;3.95;2.60;;;11.30;99.90;;;;;;4951358;29;20031;-91
2022/05/22 01:43:49;;;;;;;3.70;2.95;;;11.20;99.90;;;;;;4939657;29;20039;-89
2022/05/22 01:46:15;;;;;;;3.22;2.92;;;11.20;99.90;;;;;;4948479;29;20038;-90
2022/05/22 01:48:41;;;;;;;4.45;3.00;;;11.20;99.90;;;;;;4958782;28;20067;-88
2022/05/22 01:51:06;;;;;;;4.22;2.65;;;11.20;99.90;;;;;;4973101;28;20062;-90
2022/05/22 01:53:32;;;;;;;3.40;2.70;;;11.20;99.90;;;;;;4956158;28;20027;-91
2022/05/22 01:55:59;;;;;;;4.63;2.95;;;11.10;99.90;;;;;;4955969;29;20087;-89
2022/05/22 01:58:24;;;;;;;3.78;3.10;;;11.10;99.90;;;;;;4969577;28;20490;-90
2022/05/22 02:00:50;;;;;;;4.15;2.65;;;11.10;99.90;;;;;;4965638;28;20054;-88
2022/05/22 02:03:16;;;;;;;3.90;2.80;;;11.10;99.90;;;;;;4947488;29;20035;-90
2022/05/22 02:05:43;;;;;;;3.80;2.63;;;11.10;99.90;;;;;;4974685;28;20046;-89
2022/05/22 02:08:26;;;;;;;3.65;3.13;;;11.20;99.90;;;;;;4944929;28;20526;-90
2022/05/22 02:10:53;;;;;;;6.05;3.70;;;11.20;99.90;;;;;;4968227;28;20054;-90
2022/05/22 02:13:24;;;;;;;3.05;2.83;;;11.20;99.90;;;;;;4948259;28;20033;-91
2022/05/22 02:15:51;;;;;;;3.28;2.85;;;11.20;99.90;;;;;;4949100;28;20495;-90
2022/05/22 02:18:17;;;;;;;3.78;3.40;;;11.20;99.90;;;;;;4964100;28;20043;-90
2022/05/22 02:20:42;;;;;;;2.55;2.35;;;11.20;99.90;;;;;;4957334;28;20042;-90
2022/05/22 02:23:08;;;;;;;3.97;3.17;;;11.20;99.90;;;;;;4968592;28;20550;-89
2022/05/22 02:25:37;;;;;;;4.97;2.90;;;11.20;99.90;;;;;;4972960;28;20105;-90
2022/05/22 02:28:05;;;;;;;2.92;2.72;;;11.20;99.90;;;;;;4961391;28;20027;-90
2022/05/22 02:30:36;;;;;;;4.13;3.05;;;11.30;99.90;;;;;;4967655;28;20428;-90
2022/05/22 02:33:02;;;;;;;2.75;2.40;;;11.30;99.90;;;;;;4959003;28;20038;-90
2022/05/22 02:35:27;;;;;;;2.40;2.20;;;11.30;99.90;;;;;;4956555;28;20023;-90
2022/05/22 02:37:55;;;;;;;5.70;2.55;;;11.30;99.90;;;;;;4961633;28;20253;-90
2022/05/22 02:40:24;;;;;;;3.38;2.83;;;11.30;99.90;;;;;;4969750;28;20038;-89
2022/05/22 02:42:51;;;;;;;10.02;3.25;;;11.30;99.90;;;;;;4974445;28;20029;-90
2022/05/22 02:45:19;;;;;;;4.05;2.92;;;11.20;99.90;;;;;;4955174;28;20038;-91
2022/05/22 02:47:45;;;;;;;3.08;2.78;;;11.20;99.90;;;;;;4944209;28;20510;-90
2022/05/22 02:50:13;;;;;;;3.03;2.72;;;11.20;99.90;;;;;;4951386;28;20065;-91
2022/05/22 02:52:38;;;;;;;4.53;2.70;;;11.10;99.90;;;;;;4950927;28;20057;-90
2022/05/22 02:55:06;;;;;;;2.78;2.47;;;11.10;99.90;;;;;;4950175;29;20502;-90
2022/05/22 02:57:33;;;;;;;3.55;2.70;;;11.00;99.90;;;;;;4943468;28;20047;-90
2022/05/22 02:59:59;;;;;;;3.65;2.67;;;10.90;99.90;;;;;;4947600;29;20566;-90
2022/05/22 03:02:24;;;;;;;6.00;3.10;;;10.90;99.90;;;;;;4941195;28;20118;-90
2022/05/22 03:04:50;;;;;;;4.32;2.92;;;10.80;99.90;;;;;;4948567;28;20036;-89
2022/05/22 03:07:18;;;;;;;3.55;3.25;;;10.70;99.90;;;;;;4942951;29;20024;-90
2022/05/22 03:09:45;;;;;;;5.40;3.08;;;10.70;99.90;;;;;;4944238;28;20039;-92
2022/05/22 03:12:14;;;;;;;4.20;3.80;;;10.60;99.90;;;;;;4959458;28;20142;-91
2022/05/22 03:14:44;;;;;;;3.67;3.00;;;10.50;99.90;;;;;;4941548;28;20051;-89
2022/05/22 03:17:10;;;;;;;4.38;2.92;;;10.50;99.90;;;;;;4940345;29;20031;-90
2022/05/22 03:19:36;;;;;;;4.55;3.13;;;10.40;99.90;;;;;;4959367;28;20127;-88
2022/05/22 03:22:02;;;;;;;5.43;3.90;;;10.40;99.90;;;;;;4930056;28;20117;-90
2022/05/22 03:24:28;;;;;;;4.15;3.55;;;10.30;99.90;;;;;;4939362;28;20028;-89
2022/05/22 03:26:54;;;;;;;3.20;2.90;;;10.30;99.90;;;;;;4953935;28;20035;-90
2022/05/22 03:29:19;;;;;;;3.72;3.13;;;10.30;99.90;;;;;;4944292;28;20057;-90
2022/05/22 03:31:45;;;;;;;10.93;2.30;;;10.30;99.90;;;;;;4944545;28;20035;-89
2022/05/22 03:34:10;;;;;;;3.10;2.70;;;10.30;99.90;;;;;;4942477;29;20082;-90
2022/05/22 03:36:39;;;;;;;3.45;2.72;;;10.30;99.90;;;;;;4939757;28;20069;-91
2022/05/22 03:39:05;;;;;;;3.85;3.10;;;10.30;99.90;;;;;;4937916;28;20028;-90
2022/05/22 03:41:31;;;;;;;3.85;3.00;;;10.30;99.90;;;;;;4939112;29;20032;-90
2022/05/22 03:43:57;;;;;;;3.80;3.50;;;10.30;99.90;;;;;;4935265;29;20040;-89
2022/05/22 03:46:23;;;;;;;3.67;3.38;;;10.40;99.90;;;;;;4967049;28;20399;-89
2022/05/22 03:48:48;;;;;;;3.25;2.63;;;10.50;99.90;;;;;;4945538;29;20102;-90
2022/05/22 03:51:14;;;;;;;3.22;2.72;;;10.50;99.90;;;;;;4936989;29;20067;-90
2022/05/22 03:53:39;;;;;;;5.82;3.70;;;10.60;99.90;;;;;;4952513;28;20462;-89
2022/05/22 03:56:13;;;;;;;6.78;3.40;;;10.60;99.90;;;;;;4947993;28;20523;-90
2022/05/22 03:58:39;;;;;;;3.53;3.20;;;10.70;99.90;;;;;;4943565;29;20594;-90
2022/05/22 04:01:07;;;;;;;5.70;3.35;;;10.70;99.90;;;;;;4943240;28;20016;-90
2022/05/22 04:03:34;;;;;;;4.35;3.80;;;10.60;99.90;;;;;;4938057;28;20039;-89
2022/05/22 04:06:01;;;;;;;4.47;3.40;;;10.60;99.90;;;;;;4936613;29;20106;-90
2022/05/22 04:08:28;;;;;;;4.90;3.33;;;10.60;99.90;;;;;;4963886;28;20023;-89
2022/05/22 04:10:54;;;;;;;6.13;3.78;;;10.60;99.90;;;;;;4950172;28;20499;-90
2022/05/22 04:13:19;;;;;;;5.50;3.70;;;10.70;99.90;;;;;;4940193;28;20027;-90
2022/05/22 04:15:46;;;;;;;4.28;3.40;;;10.70;99.90;;;;;;4967987;28;20039;-89
2022/05/22 04:18:13;;;;;;;3.75;3.42;;;10.70;99.90;;;;;;4943108;29;20395;-90
2022/05/22 04:20:39;;;;;;;4.93;3.80;;;10.70;99.90;;;;;;4935923;29;20519;-90
2022/05/22 04:26:09;;;;;;;3.88;3.47;;;10.80;99.90;;;;;;4941477;28;20535;-87
2022/05/22 04:28:35;;;;;;;5.22;3.90;;;10.80;99.90;;;;;;4933240;29;20394;-89
2022/05/22 04:31:03;;;;;;;5.82;3.80;;;10.90;99.90;;;;;;4965903;28;20035;-90
2022/05/22 04:33:29;;;;;;;3.85;3.10;;;11.00;99.90;;;;;;4942154;28;20040;-91
2022/05/22 04:35:55;;;;;;;3.95;3.42;;;11.20;99.90;;;;;;4939179;29;20114;-89
2022/05/22 04:38:21;;;;;;;3.97;3.13;;;11.40;99.90;;;;;;4946556;28;20110;-90
2022/05/22 04:40:58;;;;;;;4.85;2.65;;;11.70;99.90;;;;;;4937863;29;20060;-89
2022/05/22 04:43:24;;;;;;;3.28;2.47;;;12.00;99.90;;;;;;4939557;29;20038;-90
2022/05/22 04:45:51;;;;;;;7.63;3.08;;;12.40;99.90;;;;;;4942492;29;20038;-90
2022/05/22 04:48:21;;;;;;;3.30;3.00;;;12.60;99.90;;;;;;4942562;28;20115;-91
2022/05/22 04:50:48;;;;;;;5.97;3.00;;;12.90;99.90;;;;;;4939445;29;20135;-90
2022/05/22 04:53:14;;;;;;;5.38;3.30;;;13.10;99.90;;;;;;4936259;28;20065;-90
2022/05/22 04:55:40;;;;;;;3.42;2.85;;;13.30;99.90;;;;;;4932667;29;20079;-88
2022/05/22 04:58:06;;;;;;;3.47;2.97;;;13.40;99.90;;;;;;4948483;29;20411;-90
2022/05/22 05:00:32;;;;;;;3.95;3.00;;;13.60;99.90;;;;;;4939596;28;20396;-90
2022/05/22 05:02:57;;;;;;;4.75;3.05;;;13.90;99.90;;;;;;4937503;28;20059;-90
2022/05/22 05:05:23;;;;;;;3.35;2.40;;;14.30;99.90;;;;;;4939503;29;20115;-90
2022/05/22 05:07:48;;;;;;;3.47;2.47;;;14.80;99.90;;;;;;4943964;28;20036;-90
2022/05/22 05:10:14;;;;;;;3.30;2.75;;;15.20;99.90;;;;;;4962853;28;20038;-90
2022/05/22 05:12:41;;;;;;;3.05;2.75;;;15.20;99.90;;;;;;4943281;28;20094;-89
2022/05/22 05:15:09;;;;;;;2.90;2.45;;;15.10;99.90;;;;;;4944153;28;20049;-90
2022/05/22 05:17:35;;;;;;;3.50;2.63;;;15.00;99.90;;;;;;4940047;29;20376;-90
2022/05/22 05:20:01;;;;;;;3.45;2.58;;;15.00;99.90;;;;;;4942296;28;20090;-89
2022/05/22 05:22:30;;;;;;;4.22;2.78;;;15.00;99.90;;;;;;4956287;28;20031;-90
2022/05/22 05:24:56;;;;;;;3.47;3.13;;;14.90;99.90;;;;;;4949031;29;20019;-90
2022/05/22 05:27:24;;;;;;;2.83;2.63;;;14.90;99.90;;;;;;4951238;29;20079;-91
2022/05/22 05:29:50;;;;;;;5.07;3.00;;;14.90;99.90;;;;;;4948688;28;20038;-90
2022/05/22 05:32:19;;;;;;;4.82;3.03;;;15.00;99.90;;;;;;4943041;28;20024;-90
2022/05/22 05:34:44;;;;;;;3.45;2.75;;;15.00;99.90;;;;;;4946251;28;20027;-90
2022/05/22 05:37:10;;;;;;;3.33;2.70;;;15.20;99.90;;;;;;4937674;29;20027;-90
2022/05/22 05:39:36;;;;;;;2.47;2.25;;;15.60;99.90;;;;;;4947444;29;20078;-91
2022/05/22 05:42:02;;;;;;;3.17;2.50;;;16.00;99.90;;;;;;4946558;28;20098;-90
2022/05/22 05:44:27;;;;;;;4.93;2.70;;;16.30;99.90;;;;;;4938495;29;20071;-90
2022/05/22 05:46:53;;;;;;;3.38;2.35;;;16.80;99.90;;;;;;4938235;29;20074;-91
2022/05/22 05:49:19;;;;;;;2.53;2.30;;;18.00;98.90;;;;;;4944170;29;20035;-91
2022/05/22 05:51:45;;;;;;;3.22;2.10;;;19.60;94.90;;;;;;4941369;29;20035;-91
2022/05/22 05:54:10;;;;;;;2.35;1.73;;;21.20;88.50;;;;;;4953263;28;20112;-91
2022/05/22 05:56:40;;;;;;;3.72;1.90;;;22.90;75.60;;;;;;4953269;28;20500;-92
2022/05/22 05:59:07;;;;;;;4.63;1.90;;;24.20;68.90;;;;;;4953818;28;20023;-91
2022/05/22 06:01:34;;;;;;;2.92;1.70;;;24.90;66.00;;;;;;4953432;28;20027;-91
2022/05/22 06:04:01;;;;;;;2.30;1.90;;;25.70;63.80;;;;;;4955078;28;20043;-92
2022/05/22 06:06:27;;;;;;;2.45;1.80;;;26.30;59.90;;;;;;4953944;28;20043;-91
2022/05/22 06:08:53;;;;;;;4.18;2.50;;;26.40;57.50;;;;;;4952886;28;20526;-92
2022/05/22 06:11:19;;;;;;;1.52;1.42;;;26.20;58.00;;;;;;4953354;29;20031;-91
2022/05/22 06:13:45;;;;;;;2.38;1.95;;;26.20;58.70;;;;;;4954900;28;20114;-91
2022/05/22 06:16:11;;;;;;;2.30;1.60;;;26.40;56.50;;;;;;4954087;29;20115;-91
2022/05/22 06:18:37;;;;;;;3.25;1.50;;;27.20;55.70;;;;;;4952331;28;20515;-90
2022/05/22 06:21:12;;;;;;;2.03;1.75;;;27.60;54.90;;;;;;4954205;28;20407;-91
2022/05/22 06:23:38;;;;;;;2.95;1.52;;;27.70;53.00;;;;;;4955615;28;20495;-90
2022/05/22 06:26:06;;;;;;;4.60;1.60;;;28.00;52.50;;;;;;4953562;28;20027;-92
2022/05/22 06:28:31;;;;;;;3.17;1.50;;;28.20;51.90;;;;;;4953630;28;20020;-92
2022/05/22 06:30:57;;;;;;;3.05;1.33;;;28.70;51.30;;;;;;4937595;29;20019;-92
2022/05/22 06:33:23;;;;;;;2.78;1.70;;;29.20;49.80;;;;;;4966844;28;20030;-91
2022/05/22 06:35:49;;;;;;;2.75;1.40;;;29.40;49.20;;;;;;4953647;28;20487;-91
2022/05/22 06:41:08;;;;;;;2.03;1.60;;;29.20;48.90;;;;;;4970906;28;20030;-91
2022/05/22 06:43:34;;;;;;;2.47;1.52;;;29.20;49.60;;;;;;4958536;28;20066;-91
2022/05/22 06:46:00;;;;;;;5.07;1.50;;;29.50;48.90;;;;;;4939644;29;20110;-91
2022/05/22 06:48:26;;;;;;;2.00;1.58;;;29.70;49.20;;;;;;4961961;28;20598;-91
2022/05/22 06:50:52;;;;;;;2.67;1.58;;;30.10;48.90;;;;;;4928671;29;20118;-91
2022/05/22 06:53:18;;;;;;;2.58;1.42;;;30.50;48.00;;;;;;4950413;28;20031;-91
2022/05/22 06:55:43;;;;;;;1.90;1.15;;;31.30;46.20;;;;;;4941499;29;20050;-92
2022/05/22 06:58:09;;;;;;;2.50;1.40;;;31.50;46.40;;;;;;4931469;29;20031;-89
2022/05/22 07:00:35;;;;;;;2.00;1.70;;;31.00;45.20;;;;;;4952735;28;20046;-91
2022/05/22 07:03:01;;;;;;;3.83;1.50;;;30.10;46.80;;;;;;4950674;28;20118;-91
2022/05/22 07:05:27;;;;;;;2.03;1.38;;;30.50;47.70;;;;;;4937705;29;20127;-92
2022/05/22 07:07:53;;;;;;;2.15;1.30;;;31.00;46.50;;;;;;4951179;29;20028;-91
2022/05/22 07:11:37;;;;;;;3.75;1.58;;;32.00;45.60;;;;;;4968893;28;20027;-90
2022/05/22 07:13:04;;;;;;;4.97;1.40;;;32.50;43.40;;;;;;4943868;29;20566;-92
2022/05/22 07:15:30;;;;;;;2.92;1.52;;;32.70;43.20;;;;;;4944258;29;20123;-92
2022/05/22 07:17:56;;;;;;;3.55;1.35;;;32.60;44.50;;;;;;4953375;28;20097;-91
2022/05/22 07:20:21;;;;;;;1.77;1.40;;;32.40;42.80;;;;;;4958411;28;20118;-91
2022/05/22 07:22:47;;;;;;;3.05;1.55;;;32.80;42.60;;;;;;4952799;28;20031;-91
2022/05/22 07:25:12;;;;;;;4.57;1.25;;;33.00;42.90;;;;;;4937365;29;20038;-92
2022/05/22 07:27:38;;;;;;;3.00;1.80;;;33.20;40.80;;;;;;4947917;28;20062;-91
2022/05/22 07:30:04;;;;;;;4.63;1.45;;;33.50;41.00;;;;;;4939356;28;20032;-91
2022/05/22 07:32:30;;;;;;;3.40;1.63;;;33.50;39.40;;;;;;4945042;28;20034;-91
2022/05/22 07:34:55;;;;;;;2.42;1.35;;;33.40;41.60;;;;;;4943603;28;20023;-92
2022/05/22 07:37:21;;;;;;;3.80;1.25;;;33.40;40.20;;;;;;4943835;28;20067;-93
2022/05/22 07:39:47;;;;;;;2.20;1.50;;;34.00;38.60;;;;;;4949449;29;20038;-91
2022/05/22 07:42:12;;;;;;;2.15;1.10;;;34.30;36.50;;;;;;4951242;28;20031;-92
2022/05/22 07:44:41;;;;;;;3.33;1.25;;;34.50;36.40;;;;;;4950645;29;20407;-92
2022/05/22 07:47:07;;;;;;;2.70;1.30;;;35.10;35.40;;;;;;4954103;28;20031;-92
2022/05/22 07:52:17;;;;;;;2.28;1.13;;;34.90;34.30;;;;;;4939082;29;20050;-92
2022/05/22 07:54:42;;;;;;;3.80;1.33;;;34.30;35.30;;;;;;4943581;29;20055;-93
2022/05/22 07:57:08;;;;;;;3.95;1.23;;;33.80;36.40;;;;;;4940794;29;20542;-91
2022/05/22 07:59:38;;;;;;;2.58;1.10;;;33.20;39.10;;;;;;4950519;29;20023;-92
2022/05/22 08:02:08;;;;;;;3.60;1.30;;;34.00;37.90;;;;;;4951230;28;20043;-91
2022/05/22 08:04:34;;;;;;;1.67;1.10;;;34.40;36.20;;;;;;4953706;28;20072;-89
2022/05/22 08:06:59;;;;;;;4.05;1.20;;;34.00;37.30;;;;;;4943481;28;20059;-92
2022/05/22 08:09:25;;;;;;;1.77;1.27;;;33.10;37.30;;;;;;4940184;29;20451;-92
2022/05/22 08:11:51;;;;;;;3.22;1.10;;;31.90;38.70;;;;;;4948616;29;20034;-92
2022/05/22 08:14:20;;;;;;;2.90;1.27;;;32.00;38.70;;;;;;4942017;29;20027;-93
2022/05/22 08:16:45;;;;;;;3.22;1.10;;;32.70;39.60;;;;;;4940852;28;20024;-92
2022/05/22 08:19:11;;;;;;;4.00;1.25;;;33.10;38.70;;;;;;4948281;29;20400;-92
2022/05/22 08:21:37;;;;;;;3.25;1.05;;;32.40;39.10;;;;;;4944542;29;20110;-92
2022/05/22 08:24:03;;;;;;;2.50;1.27;;;31.20;41.40;;;;;;4941782;28;20059;-91
2022/05/22 08:26:29;;;;;;;3.78;1.10;;;30.40;43.40;;;;;;4941048;28;20023;-91
2022/05/22 08:28:55;;;;;;;3.65;1.60;;;30.60;42.70;;;;;;4947553;28;20043;-91
2022/05/22 08:31:21;;;;;;;3.03;1.05;;;31.10;41.20;;;;;;4945091;28;20054;-93
2022/05/22 08:33:47;;;;;;;2.45;1.20;;;31.40;40.90;;;;;;4947191;28;20044;-92
2022/05/22 08:36:12;;;;;;;3.22;1.52;;;32.00;40.70;;;;;;4945682;29;20069;-92
2022/05/22 08:38:38;;;;;;;2.33;1.20;;;32.10;40.60;;;;;;4954839;28;20035;-92
2022/05/22 08:41:19;;;;;;;1.98;1.17;;;32.10;39.50;;;;;;4956644;28;20537;-92
2022/05/22 08:43:56;;;;;;;4.93;1.60;;;31.00;42.80;;;;;;4944997;28;20035;-90
2022/05/22 08:46:24;;;;;;;2.10;1.10;;;30.30;43.10;;;;;;4962965;28;20031;-91
2022/05/22 08:48:57;;;;;;;3.55;1.40;;;29.30;43.40;;;;;;4943739;29;20063;-91
2022/05/22 08:51:43;;;;;;;2.30;1.13;;;28.60;44.70;;;;;;4953195;29;20043;-92
2022/05/22 08:54:25;;;;;;;2.90;1.33;;;27.70;45.70;;;;;;4948748;28;20090;-91
2022/05/22 08:59:41;;;;;;;4.32;1.35;;;26.40;51.90;;;;;;4945108;28;20042;-91
2022/05/22 09:02:30;;;;;;;2.03;1.30;;;26.10;53.10;;;;;;4952384;28;20024;-91
2022/05/22 09:05:02;;;;;;;3.47;1.80;;;26.10;50.70;;;;;;4955596;28;20027;-90
2022/05/22 09:07:50;;;;;;;4.93;1.35;;;26.50;52.00;;;;;;4949877;29;20055;-92
2022/05/22 09:10:52;;;;;;;3.58;1.38;;;27.60;50.60;;;;;;4953606;29;20027;-93
2022/05/22 09:14:02;;;;;;;2.03;1.23;;;29.00;46.40;;;;;;4938655;29;20039;-94
2022/05/22 09:16:30;;;;;;;3.47;1.63;;;30.70;44.10;;;;;;4950565;29;20031;-91
2022/05/22 09:19:14;;;;;;;3.17;1.27;;;32.00;41.00;;;;;;4956570;29;20507;-93
2022/05/22 09:22:01;;;;;;;2.50;1.10;;;32.60;42.00;;;;;;4942551;29;20035;-92
2022/05/22 09:24:48;;;;;;;3.40;1.33;;;32.80;39.70;;;;;;4947708;29;20462;-92
2022/05/22 09:27:28;;;;;;;3.47;1.13;;;32.20;39.80;;;;;;4948111;28;20028;-91
2022/05/22 09:30:26;;;;;;;4.18;1.25;;;31.30;40.50;;;;;;4953417;28;20167;-92
2022/05/22 09:33:11;;;;;;;2.15;1.20;;;30.80;43.10;;;;;;4937904;28;20086;-92
2022/05/22 09:36:05;;;;;;;2.63;1.35;;;30.00;43.40;;;;;;4941094;28;20028;-92
2022/05/22 09:38:55;;;;;;;3.47;1.17;;;29.50;44.30;;;;;;4948321;28;20023;-91
2022/05/22 09:41:51;;;;;;;2.57;1.00;;;29.30;44.90;;;;;;4954588;28;20019;-93
2022/05/22 09:44:28;;;;;;;2.60;1.00;;;29.30;43.10;;;;;;4957997;28;20031;-94
2022/05/22 09:47:05;;;;;;;2.58;1.00;;;29.90;43.10;;;;;;4954521;28;20039;-93
2022/05/22 09:49:40;;;;;;;1.33;1.13;;;31.60;41.00;;;;;;4947425;28;20053;-90
2022/05/22 09:52:33;;;;;;;2.78;1.10;;;33.00;38.90;;;;;;4952522;28;20024;-91
2022/05/22 09:55:33;;;;;;;3.90;1.35;;;32.80;38.40;;;;;;4932140;29;20048;-92
2022/05/22 09:57:58;;;;;;;4.68;1.17;;;31.90;39.10;;;;;;4962055;28;20035;-92
2022/05/22 10:00:48;;;;;;;2.67;1.30;;;31.00;39.60;;;;;;4955862;28;20090;-94
2022/05/22 10:03:18;;;;;;;3.60;1.17;;;31.40;41.10;;;;;;4953559;28;20514;-91
2022/05/22 10:05:52;;;;;;;2.92;1.20;;;32.20;39.60;;;;;;4953377;28;20684;-93
2022/05/22 10:08:18;;;;;;;3.22;1.20;;;32.70;39.60;;;;;;4953847;28;20078;-92
2022/05/22 10:10:50;;;;;;;3.10;1.00;;;32.70;39.50;;;;;;4939666;28;20024;-92
2022/05/22 10:13:34;;;;;;;1.42;0.90;;;33.00;39.30;;;;;;4952204;28;20032;-91
2022/05/22 10:16:03;;;;;;;3.92;1.40;;;33.20;38.80;;;;;;4966301;28;20119;-92
2022/05/22 10:18:50;;;;;;;2.75;0.93;;;33.20;38.00;;;;;;4940632;28;20031;-92
2022/05/22 10:21:27;;;;;;;1.83;0.93;;;33.60;35.90;;;;;;4946315;28;20648;-92
2022/05/22 10:24:34;;;;;;;2.28;0.90;;;33.80;38.60;;;;;;4953941;28;20035;-93
2022/05/22 10:27:43;;;;;;;2.35;1.10;;;34.40;37.20;;;;;;4942480;29;20081;-92
2022/05/22 10:30:26;;;;;;;2.33;0.80;;;34.30;36.30;;;;;;4940903;28;20031;-91
2022/05/22 10:33:08;;;;;;;2.83;1.00;;;32.70;35.80;;;;;;4964181;28;20038;-91
2022/05/22 10:35:42;;;;;;;4.45;1.00;;;31.40;40.60;;;;;;4959485;28;20023;-93
2022/05/22 10:38:24;;;;;;;2.88;0.90;;;30.60;41.70;;;;;;4962128;28;20024;-91
2022/05/22 10:43:43;;;;;;;2.67;0.90;;;30.70;38.40;;;;;;4945243;29;20035;-92
2022/05/22 10:46:09;;;;;;;1.42;0.82;;;31.20;40.30;;;;;;4945252;29;20034;-92
2022/05/22 10:48:45;;;;;;;2.97;1.00;;;32.20;38.50;;;;;;4949333;28;20035;-93
2022/05/22 10:51:20;;;;;;;0.98;0.50;;;32.50;37.20;;;;;;4948943;29;20422;-93
2022/05/22 10:53:45;;;;;;;1.42;0.70;;;32.50;36.50;;;;;;4946038;28;20027;-91
2022/05/22 10:56:14;;;;;;;1.92;0.90;;;32.20;37.20;;;;;;4946952;29;20043;-94
2022/05/22 10:58:51;;;;;;;2.05;1.10;;;32.20;38.80;;;;;;4957777;28;20023;-92
2022/05/22 11:01:21;;;;;;;1.58;0.80;;;32.40;36.30;;;;;;4948180;29;20475;-93
2022/05/22 11:03:47;;;;;;;2.97;0.80;;;32.40;38.70;;;;;;4950511;28;20484;-93
2022/05/22 11:06:22;;;;;;;2.75;0.90;;;32.80;39.30;;;;;;4969744;28;20067;-94
2022/05/22 11:08:53;;;;;;;2.15;0.90;;;33.30;38.30;;;;;;4940615;29;20111;-92
2022/05/22 11:11:38;;;;;;;2.47;1.00;;;32.80;38.30;;;;;;4946130;28;20024;-92
2022/05/22 11:14:13;;;;;;;2.72;0.90;;;32.70;37.00;;;;;;4944650;29;20027;-93
2022/05/22 11:16:40;;;;;;;1.92;0.98;;;32.70;38.50;;;;;;4949456;28;20111;-92
2022/05/22 11:19:08;;;;;;;3.10;1.10;;;31.70;38.60;;;;;;4940092;29;20114;-93
2022/05/22 11:21:43;;;;;;;10.52;1.33;;;30.40;39.60;;;;;;4938973;29;20038;-94
2022/05/22 11:24:51;;;;;;;3.45;1.02;;;30.30;42.40;;;;;;4942801;29;20032;-93
2022/05/22 11:27:54;;;;;;;2.65;0.98;;;30.70;42.10;;;;;;4948298;29;20110;-94
2022/05/22 11:30:28;;;;;;;3.03;1.20;;;30.90;41.40;;;;;;4966108;28;20032;-93
2022/05/22 11:33:32;;;;;;;2.08;0.90;;;30.40;42.30;;;;;;4947315;28;20024;-92
2022/05/22 11:36:12;;;;;;;2.22;0.93;;;29.90;42.30;;;;;;4948221;29;20396;-92
2022/05/22 11:39:02;;;;;;;2.17;0.90;;;29.70;43.90;;;;;;4952781;28;20027;-91
2022/05/22 11:41:43;;;;;;;1.83;0.95;;;29.30;42.10;;;;;;4945315;28;20020;-92
2022/05/22 11:44:42;;;;;;;2.03;1.02;;;28.70;43.60;;;;;;4943591;28;20038;-91
2022/05/22 11:47:17;;;;;;;2.38;1.10;;;28.00;45.40;;;;;;4951771;28;20055;-92
2022/05/22 11:50:07;;;;;;;2.40;1.15;;;27.20;46.10;;;;;;4940509;29;20019;-91
2022/05/22 11:53:11;;;;;;;2.63;1.13;;;26.60;47.50;;;;;;4943377;28;20019;-91
2022/05/22 11:55:46;;;;;;;1.98;0.90;;;26.70;48.90;;;;;;4934409;29;20040;-92
2022/05/22 11:58:20;;;;;;;1.92;0.88;;;27.20;45.80;;;;;;4950646;29;20272;-92
2022/05/22 12:01:15;;;;;;;1.92;0.95;;;27.90;44.90;;;;;;4934870;28;20028;-92
2022/05/22 12:03:49;;;;;;;2.75;1.15;;;28.10;45.10;;;;;;4942260;29;20083;-90
2022/05/22 12:06:41;;;;;;;2.38;1.00;;;28.70;44.80;;;;;;4941708;29;20027;-93
2022/05/22 12:09:10;;;;;;;3.05;1.30;;;29.00;43.90;;;;;;4942495;29;20031;-91
2022/05/22 12:12:16;;;;;;;2.88;1.20;;;29.30;43.00;;;;;;4938452;29;20461;-93
2022/05/22 12:15:13;;;;;;;2.55;1.00;;;29.50;44.10;;;;;;4932515;29;20031;-93
2022/05/22 12:17:55;;;;;;;2.33;1.00;;;29.00;43.10;;;;;;4944063;29;20024;-91
2022/05/22 12:20:38;;;;;;;1.98;1.10;;;28.50;44.30;;;;;;4930121;28;20027;-92
2022/05/22 12:23:16;;;;;;;2.25;1.02;;;28.40;45.80;;;;;;4918118;29;20032;-90
2022/05/22 12:25:43;;;;;;;1.88;0.90;;;28.50;44.40;;;;;;4940570;29;20036;-88
2022/05/22 12:28:21;;;;;;;2.22;0.98;;;28.20;43.90;;;;;;4946028;29;20034;-89
2022/05/22 12:30:47;;;;;;;1.85;0.90;;;27.80;45.70;;;;;;4946276;29;20054;-91
2022/05/22 12:33:13;;;;;;;2.95;0.90;;;27.80;47.30;;;;;;4942367;28;20499;-90
2022/05/22 12:35:42;;;;;;;1.60;0.93;;;27.80;48.20;;;;;;4949281;28;20040;-90
2022/05/22 12:38:11;;;;;;;1.60;1.00;;;28.00;44.40;;;;;;4952979;28;20107;-91
2022/05/22 12:40:46;;;;;;;2.63;1.10;;;28.30;44.70;;;;;;4959251;28;20046;-91
2022/05/22 12:43:16;;;;;;;2.05;1.00;;;28.60;45.70;;;;;;4940905;29;20031;-92
2022/05/22 12:45:43;;;;;;;4.43;0.85;;;28.30;42.60;;;;;;4930849;29;20086;-89
2022/05/22 12:48:37;;;;;;;1.60;1.05;;;27.90;46.00;;;;;;4952387;28;20032;-91
2022/05/22 12:51:11;;;;;;;2.55;0.98;;;27.20;46.00;;;;;;4944521;28;20592;-92
2022/05/22 12:53:41;;;;;;;2.25;1.08;;;27.00;45.90;;;;;;4942328;28;20027;-91
2022/05/22 12:56:38;;;;;;;1.80;1.00;;;27.30;46.30;;;;;;4940155;28;20028;-92
2022/05/22 12:59:17;;;;;;;2.60;1.00;;;27.50;46.40;;;;;;4943152;28;20023;-91
2022/05/22 13:01:45;;;;;;;3.35;1.20;;;27.60;44.70;;;;;;4939903;29;20496;-90
2022/05/22 13:04:26;;;;;;;3.42;1.15;;;27.60;44.10;;;;;;4942228;28;20036;-91
2022/05/22 13:07:11;;;;;;;1.98;1.00;;;27.70;46.00;;;;;;4939331;29;20032;-92
2022/05/22 13:09:43;;;;;;;4.53;1.20;;;27.70;45.20;;;;;;4948549;29;20027;-92
2022/05/22 13:12:18;;;;;;;2.42;1.17;;;27.70;44.20;;;;;;4941887;28;20376;-91
2022/05/22 13:14:58;;;;;;;1.92;0.90;;;27.70;45.60;;;;;;4944351;29;20530;-90
2022/05/22 13:17:39;;;;;;;2.53;1.05;;;27.70;45.50;;;;;;4941643;28;20040;-91
2022/05/22 13:20:21;;;;;;;4.22;1.48;;;27.70;43.90;;;;;;4937730;28;20035;-92
2022/05/22 13:22:47;;;;;;;2.97;1.10;;;27.60;44.70;;;;;;4939547;29;20059;-91
2022/05/22 13:25:31;;;;;;;2.80;1.15;;;27.50;45.20;;;;;;4944488;29;20062;-91